createdAt,value
2023-03-31T00:01:07.764Z,55.54
2023-03-31T00:03:39.036Z,55.89
2023-03-31T00:06:06.249Z,55.96
2023-03-31T00:08:36.338Z,55.86
2023-03-31T00:11:07.670Z,55.80
2023-03-31T00:13:36.233Z,56.09
2023-03-31T00:16:09.574Z,56.36
2023-03-31T00:18:38.059Z,56.75
2023-03-31T00:21:25.321Z,56.31
2023-03-31T00:23:59.187Z,55.95
2023-03-31T00:26:26.481Z,56.09
2023-03-31T00:28:54.497Z,55.77
2023-03-31T00:31:23.642Z,55.84
2023-03-31T00:33:51.038Z,55.94
2023-03-31T00:36:27.498Z,57.14
2023-03-31T00:39:11.864Z,57.28
2023-03-31T00:41:39.848Z,57.35
2023-03-31T00:44:23.244Z,57.84
2023-03-31T00:46:53.406Z,58.14
2023-03-31T00:49:38.362Z,58.02
2023-03-31T00:52:22.080Z,58.64
2023-03-31T00:54:53.961Z,58.53
2023-03-31T00:57:22.970Z,58.20
2023-03-31T00:59:59.176Z,58.54
2023-03-31T01:02:26.686Z,58.39
2023-03-31T01:05:00.805Z,57.45
2023-03-31T01:07:54.540Z,57.17
2023-03-31T01:10:22.759Z,56.88
2023-03-31T01:12:55.819Z,56.74
2023-03-31T01:15:23.728Z,56.48
2023-03-31T01:17:56.174Z,56.08
2023-03-31T01:20:49.670Z,56.25
2023-03-31T01:23:45.968Z,55.76
2023-03-31T01:26:43.210Z,55.90
2023-03-31T01:29:52.371Z,55.47
2023-03-31T01:32:37.882Z,55.08
2023-03-31T01:35:33.024Z,55.03
2023-03-31T01:38:32.743Z,55.31
2023-03-31T01:41:18.803Z,55.35
2023-03-31T01:43:55.220Z,55.55
2023-03-31T01:46:37.285Z,55.22
2023-03-31T01:49:35.517Z,55.68
2023-03-31T01:52:21.880Z,55.36
2023-03-31T01:54:52.952Z,55.26
2023-03-31T01:57:28.632Z,55.12
2023-03-31T02:00:11.664Z,54.71
2023-03-31T02:03:04.461Z,54.83
2023-03-31T02:05:42.525Z,54.84
2023-03-31T02:08:20.169Z,55.14
2023-03-31T02:10:49.413Z,54.44
2023-03-31T02:13:19.445Z,54.51
2023-03-31T02:15:52.041Z,54.37
2023-03-31T02:18:26.300Z,54.67
2023-03-31T02:20:57.659Z,54.56
2023-03-31T02:23:31.758Z,54.73
2023-03-31T02:26:14.105Z,54.71
2023-03-31T02:28:45.382Z,54.65
2023-03-31T02:31:24.802Z,54.41
2023-03-31T02:33:53.173Z,54.70
2023-03-31T02:36:21.899Z,54.38
2023-03-31T02:38:57.167Z,54.45
2023-03-31T02:41:24.643Z,54.35
2023-03-31T02:43:56.568Z,54.49
2023-03-31T02:46:25.509Z,54.26
2023-03-31T02:48:56.784Z,54.65
2023-03-31T02:51:42.373Z,53.93
2023-03-31T02:54:18.275Z,54.46
2023-03-31T02:57:25.140Z,53.32
2023-03-31T03:00:37.518Z,53.70
2023-03-31T03:03:36.364Z,53.35
2023-03-31T03:06:24.508Z,53.62
2023-03-31T03:09:22.815Z,53.87
2023-03-31T03:12:08.122Z,54.28
2023-03-31T03:14:54.867Z,54.52
2023-03-31T03:17:42.055Z,54.54
2023-03-31T03:20:10.589Z,54.30
2023-03-31T03:22:38.967Z,54.69
2023-03-31T03:25:07.455Z,54.28
2023-03-31T03:27:35.959Z,54.54
2023-03-31T03:30:06.855Z,54.89
2023-03-31T03:32:42.036Z,54.46
2023-03-31T03:35:10.197Z,54.88
2023-03-31T03:37:39.105Z,54.75
2023-03-31T03:40:06.596Z,54.53
2023-03-31T03:42:34.449Z,54.65
2023-03-31T03:45:01.659Z,55.10
2023-03-31T03:47:28.987Z,54.79
2023-03-31T03:49:56.192Z,54.83
2023-03-31T03:52:23.199Z,54.43
2023-03-31T03:54:50.440Z,55.24
2023-03-31T03:57:21.816Z,55.58
2023-03-31T03:59:49.014Z,55.44
2023-03-31T04:02:16.385Z,55.89
2023-03-31T04:04:43.203Z,56.13
2023-03-31T04:07:09.903Z,55.63
2023-03-31T04:09:37.074Z,55.12
2023-03-31T04:12:04.855Z,55.17
2023-03-31T04:14:32.863Z,55.28
2023-03-31T04:16:59.926Z,55.31
2023-03-31T04:19:27.933Z,54.86
2023-03-31T04:22:02.840Z,54.85
2023-03-31T04:24:33.015Z,55.68
2023-03-31T04:27:03.110Z,56.03
2023-03-31T04:29:33.609Z,57.02
2023-03-31T04:32:01.294Z,57.24
2023-03-31T04:34:36.495Z,57.72
2023-03-31T04:37:04.322Z,57.47
2023-03-31T04:39:31.471Z,57.26
2023-03-31T04:42:00.737Z,57.35
2023-03-31T04:44:30.772Z,57.38
2023-03-31T04:46:59.068Z,57.79
2023-03-31T04:49:25.768Z,57.84
2023-03-31T04:51:52.769Z,58.65
2023-03-31T04:54:19.596Z,58.37
2023-03-31T04:56:46.541Z,58.22
2023-03-31T04:59:13.334Z,57.92
2023-03-31T05:01:45.884Z,57.79
2023-03-31T05:04:13.663Z,58.33
2023-03-31T05:06:41.293Z,58.58
2023-03-31T05:09:09.954Z,58.01
2023-03-31T05:11:38.620Z,58.49
2023-03-31T05:14:09.249Z,58.63
2023-03-31T05:16:39.448Z,59.04
2023-03-31T05:19:06.617Z,60.01
2023-03-31T05:21:37.508Z,59.83
2023-03-31T05:24:07.414Z,59.96
2023-03-31T05:26:35.181Z,60.60
2023-03-31T05:29:02.496Z,60.94
2023-03-31T05:31:30.021Z,63.28
2023-03-31T05:33:57.418Z,65.76
2023-03-31T05:36:27.543Z,67.36
2023-03-31T05:38:54.630Z,67.89
2023-03-31T05:41:23.514Z,68.18
2023-03-31T05:43:50.792Z,68.70
2023-03-31T05:46:18.713Z,67.11
2023-03-31T05:48:46.017Z,67.75
2023-03-31T05:51:13.604Z,68.19
2023-03-31T05:53:42.299Z,67.47
2023-03-31T05:56:09.866Z,67.09
2023-03-31T05:58:38.105Z,69.26
2023-03-31T06:01:08.457Z,70.08
2023-03-31T06:03:39.106Z,71.67
2023-03-31T06:06:09.410Z,72.11
2023-03-31T06:08:38.489Z,75.11
2023-03-31T06:11:14.670Z,77.74
2023-03-31T06:13:43.387Z,78.06
2023-03-31T06:16:12.716Z,78.89
2023-03-31T06:18:42.131Z,78.62
2023-03-31T06:21:16.395Z,78.87
2023-03-31T06:23:46.988Z,76.38
2023-03-31T06:26:19.059Z,75.81
2023-03-31T06:28:47.170Z,75.98
2023-03-31T06:31:21.198Z,76.37
2023-03-31T06:33:48.847Z,76.25
2023-03-31T06:36:18.856Z,75.17
2023-03-31T06:38:46.599Z,75.25
2023-03-31T06:41:18.900Z,74.73
2023-03-31T06:43:46.730Z,72.91
2023-03-31T06:46:16.878Z,73.01
2023-03-31T06:48:46.103Z,72.20
2023-03-31T06:51:13.713Z,72.18
2023-03-31T06:53:42.261Z,70.12
2023-03-31T06:56:11.651Z,69.60
2023-03-31T06:58:41.409Z,69.78
2023-03-31T07:01:12.207Z,68.87
2023-03-31T07:03:43.380Z,69.29
2023-03-31T07:06:14.266Z,69.16
2023-03-31T07:08:42.487Z,68.37
2023-03-31T07:11:12.799Z,68.70
2023-03-31T07:13:39.808Z,67.88
2023-03-31T07:16:08.468Z,69.31
2023-03-31T07:18:36.911Z,68.59
2023-03-31T07:21:09.001Z,68.81
2023-03-31T07:23:37.278Z,68.01
2023-03-31T07:26:04.684Z,68.50
2023-03-31T07:28:35.328Z,68.66
2023-03-31T07:31:14.572Z,67.22
2023-03-31T07:33:42.077Z,67.21
2023-03-31T07:36:13.282Z,66.14
2023-03-31T07:38:43.429Z,65.73
2023-03-31T07:41:14.740Z,65.50
2023-03-31T07:43:42.423Z,66.24
2023-03-31T07:46:21.854Z,65.62
2023-03-31T07:48:49.826Z,65.44
2023-03-31T07:51:21.886Z,62.79
2023-03-31T07:53:53.069Z,63.23
2023-03-31T07:56:22.294Z,62.22
2023-03-31T07:58:49.492Z,62.40
2023-03-31T08:01:19.058Z,62.18
2023-03-31T08:03:51.046Z,62.57
2023-03-31T08:06:19.962Z,63.39
2023-03-31T08:08:46.684Z,64.39
2023-03-31T08:11:14.192Z,64.64
2023-03-31T08:13:41.083Z,64.52
2023-03-31T08:16:08.205Z,64.59
2023-03-31T08:18:35.991Z,63.69
2023-03-31T08:21:06.666Z,64.13
2023-03-31T08:23:36.959Z,63.96
2023-03-31T08:26:16.395Z,62.17
2023-03-31T08:28:46.114Z,61.05
2023-03-31T08:31:16.584Z,61.41
2023-03-31T08:33:44.167Z,60.67
2023-03-31T08:36:12.313Z,59.94
2023-03-31T08:38:45.996Z,58.29
2023-03-31T08:41:28.433Z,58.13
2023-03-31T08:43:57.384Z,58.29
2023-03-31T08:46:32.947Z,59.04
2023-03-31T08:49:01.463Z,58.84
2023-03-31T08:51:34.304Z,58.88
2023-03-31T08:54:17.988Z,58.46
2023-03-31T08:56:49.433Z,60.35
2023-03-31T08:59:36.390Z,61.47
2023-03-31T09:02:36.382Z,62.49
2023-03-31T09:05:11.562Z,63.08
2023-03-31T09:08:06.456Z,63.92
2023-03-31T09:10:43.820Z,64.89
2023-03-31T09:13:19.614Z,65.19
2023-03-31T09:15:58.621Z,65.48
2023-03-31T09:18:38.051Z,65.92
2023-03-31T09:21:08.850Z,62.14
2023-03-31T09:23:43.057Z,62.25
2023-03-31T09:26:23.477Z,63.22
2023-03-31T09:28:53.197Z,64.18
2023-03-31T09:31:21.915Z,63.71
2023-03-31T09:33:52.894Z,64.37
2023-03-31T09:36:24.696Z,65.53
2023-03-31T09:38:51.915Z,66.31
2023-03-31T09:41:20.256Z,67.51
2023-03-31T09:43:49.669Z,68.50
2023-03-31T09:46:19.613Z,68.30
2023-03-31T09:49:00.613Z,68.13
2023-03-31T09:51:32.777Z,68.07
2023-03-31T09:54:22.809Z,67.91
2023-03-31T09:56:55.336Z,66.53
2023-03-31T09:59:38.921Z,64.72
2023-03-31T10:02:19.551Z,63.98
2023-03-31T10:04:46.756Z,62.78
2023-03-31T10:07:13.950Z,62.15
2023-03-31T10:09:42.843Z,61.60
2023-03-31T10:12:21.331Z,60.00
2023-03-31T10:14:50.611Z,59.18
2023-03-31T10:17:20.982Z,58.96
2023-03-31T10:20:06.529Z,58.78
2023-03-31T10:22:35.756Z,55.82
2023-03-31T10:25:28.947Z,55.83
2023-03-31T10:27:57.433Z,54.67
2023-03-31T10:30:28.913Z,54.10
2023-03-31T10:32:56.505Z,53.44
2023-03-31T10:35:34.998Z,53.47
2023-03-31T10:38:12.430Z,52.41
2023-03-31T10:40:43.747Z,51.75
2023-03-31T10:43:16.935Z,51.67
2023-03-31T10:45:51.551Z,51.18
2023-03-31T10:48:33.465Z,49.29
2023-03-31T10:51:18.738Z,47.86
2023-03-31T10:53:48.462Z,47.20
2023-03-31T10:56:21.634Z,47.20
2023-03-31T10:59:02.002Z,47.44
2023-03-31T11:01:52.857Z,51.87
2023-03-31T11:04:47.895Z,55.41
2023-03-31T11:07:22.588Z,56.49
2023-03-31T11:10:08.289Z,55.63
2023-03-31T11:12:51.921Z,55.51
2023-03-31T11:15:19.260Z,55.34
2023-03-31T11:18:31.491Z,56.04
2023-03-31T11:21:26.652Z,56.85
2023-03-31T11:24:24.457Z,57.71
2023-03-31T11:27:09.133Z,58.26
2023-03-31T11:30:07.459Z,57.24
2023-03-31T11:32:53.118Z,56.97
2023-03-31T11:35:39.530Z,55.73
2023-03-31T11:38:16.095Z,48.26
2023-03-31T11:41:09.412Z,44.22
2023-03-31T11:44:04.864Z,38.95
2023-03-31T11:46:40.605Z,37.49
2023-03-31T11:49:25.285Z,39.06
2023-03-31T11:51:57.085Z,41.93
2023-03-31T11:54:31.659Z,44.10
2023-03-31T11:57:03.626Z,46.58
2023-03-31T11:59:33.000Z,48.90
2023-03-31T12:02:23.869Z,50.16
2023-03-31T12:04:56.807Z,52.82
2023-03-31T12:07:31.969Z,56.28
2023-03-31T12:10:05.946Z,57.94
2023-03-31T12:12:40.091Z,57.65
2023-03-31T12:15:25.524Z,56.27
2023-03-31T12:18:16.997Z,53.27
2023-03-31T12:20:53.161Z,49.21
2023-03-31T12:23:27.714Z,49.28
2023-03-31T12:26:23.152Z,47.19
2023-03-31T12:28:57.981Z,47.49
2023-03-31T12:31:28.166Z,47.00
2023-03-31T12:34:14.132Z,45.70
2023-03-31T12:36:55.572Z,44.95
2023-03-31T12:39:56.907Z,44.74
2023-03-31T12:42:48.940Z,43.42
2023-03-31T12:45:39.662Z,42.86
2023-03-31T12:48:27.033Z,42.28
2023-03-31T12:51:18.362Z,42.44
2023-03-31T12:54:01.995Z,42.13
2023-03-31T12:56:51.262Z,41.89
2023-03-31T12:59:25.973Z,42.14
2023-03-31T13:02:12.667Z,42.21
2023-03-31T13:04:40.055Z,42.07
2023-03-31T13:07:29.261Z,42.65
2023-03-31T13:10:15.376Z,42.85
2023-03-31T13:12:54.837Z,43.78
2023-03-31T13:15:25.133Z,43.92
2023-03-31T13:17:59.660Z,43.53
2023-03-31T13:20:38.228Z,43.37
2023-03-31T13:23:16.453Z,42.67
2023-03-31T13:25:46.112Z,41.91
2023-03-31T13:28:21.924Z,42.73
2023-03-31T13:30:53.770Z,42.85
2023-03-31T13:33:20.548Z,42.23
2023-03-31T13:35:53.178Z,41.50
2023-03-31T13:39:02.190Z,43.03
2023-03-31T13:41:54.455Z,42.98
2023-03-31T13:44:51.625Z,43.03
2023-03-31T13:48:04.227Z,43.15
2023-03-31T13:51:02.262Z,43.79
2023-03-31T13:54:00.085Z,44.20
2023-03-31T13:56:34.049Z,44.13
2023-03-31T13:59:22.758Z,44.99
2023-03-31T14:02:14.314Z,46.80
2023-03-31T14:05:05.813Z,46.63
2023-03-31T14:07:43.691Z,47.05
2023-03-31T14:10:34.863Z,48.95
2023-03-31T14:13:26.137Z,49.90
2023-03-31T14:16:00.370Z,50.96
2023-03-31T14:18:41.318Z,51.54
2023-03-31T14:21:47.736Z,51.02
2023-03-31T14:24:26.586Z,49.23
2023-03-31T14:27:13.419Z,48.33
2023-03-31T14:30:00.531Z,46.96
2023-03-31T14:32:54.491Z,46.94
2023-03-31T14:35:55.314Z,45.35
2023-03-31T14:38:23.828Z,44.96
2023-03-31T14:40:57.572Z,45.93
2023-03-31T14:43:38.010Z,46.08
2023-03-31T14:46:07.687Z,46.85
2023-03-31T14:48:47.381Z,47.79
2023-03-31T14:51:16.973Z,47.93
2023-03-31T14:53:45.534Z,48.50
2023-03-31T14:56:16.459Z,48.20
2023-03-31T14:58:47.744Z,48.55
2023-03-31T15:01:24.077Z,49.28
2023-03-31T15:03:53.532Z,51.24
2023-03-31T15:06:25.926Z,52.73
2023-03-31T15:08:59.180Z,53.89
2023-03-31T15:11:30.719Z,56.53
2023-03-31T15:14:05.185Z,56.97
2023-03-31T15:16:56.802Z,57.85
2023-03-31T15:19:27.934Z,56.71
2023-03-31T15:21:57.261Z,55.65
2023-03-31T15:24:24.210Z,54.57
2023-03-31T15:27:26.303Z,53.86
2023-03-31T15:30:00.050Z,53.33
2023-03-31T15:32:28.634Z,52.34
2023-03-31T15:35:18.597Z,52.41
2023-03-31T15:37:50.447Z,52.75
2023-03-31T15:40:27.178Z,51.34
2023-03-31T15:43:06.327Z,51.18
2023-03-31T15:45:58.071Z,51.10
2023-03-31T15:48:53.242Z,51.40
2023-03-31T15:51:28.597Z,51.83
2023-03-31T15:53:55.910Z,51.32
2023-03-31T15:56:44.951Z,52.10
2023-03-31T15:59:37.921Z,52.53
2023-03-31T16:02:18.116Z,52.75
2023-03-31T16:04:49.396Z,52.72
2023-03-31T16:07:23.980Z,53.36
2023-03-31T16:10:22.263Z,53.48
2023-03-31T16:12:52.461Z,54.06
2023-03-31T16:15:30.332Z,54.15
2023-03-31T16:18:03.559Z,54.37
2023-03-31T16:20:40.375Z,54.00
2023-03-31T16:23:16.970Z,54.81
2023-03-31T16:25:44.935Z,54.45
2023-03-31T16:28:28.755Z,54.51
2023-03-31T16:30:55.697Z,53.95
2023-03-31T16:33:24.625Z,53.96
2023-03-31T16:35:56.243Z,53.98
2023-03-31T16:38:25.809Z,54.05
2023-03-31T16:40:55.200Z,53.93
2023-03-31T16:43:28.047Z,54.05
2023-03-31T16:45:57.763Z,52.92
2023-03-31T16:48:28.439Z,53.73
2023-03-31T16:50:57.761Z,53.68
2023-03-31T16:53:43.070Z,53.15
2023-03-31T16:56:11.969Z,53.91
2023-03-31T16:58:39.789Z,54.52
2023-03-31T17:01:08.551Z,54.43
2023-03-31T17:03:37.774Z,55.32
2023-03-31T17:06:12.087Z,55.45
2023-03-31T17:08:40.035Z,56.20
2023-03-31T17:11:11.961Z,55.76
2023-03-31T17:13:42.713Z,56.29
2023-03-31T17:16:19.301Z,55.76
2023-03-31T17:18:54.347Z,55.75
2023-03-31T17:21:22.017Z,55.22
2023-03-31T17:23:49.961Z,54.23
2023-03-31T17:26:17.849Z,54.16
2023-03-31T17:28:45.655Z,54.13
2023-03-31T17:31:15.005Z,54.04
2023-03-31T17:33:43.689Z,54.33
2023-03-31T17:36:12.062Z,53.81
2023-03-31T17:38:40.137Z,53.83
2023-03-31T17:41:10.816Z,53.78
2023-03-31T17:43:38.218Z,53.48
2023-03-31T17:46:13.483Z,53.55
2023-03-31T17:48:41.669Z,53.30
2023-03-31T17:51:16.126Z,52.84
2023-03-31T17:53:45.885Z,53.51
2023-03-31T17:56:13.236Z,53.08
2023-03-31T17:58:41.415Z,52.82
2023-03-31T18:01:09.694Z,52.71
2023-03-31T18:03:36.702Z,52.93
2023-03-31T18:06:12.772Z,52.55
2023-03-31T18:08:46.275Z,52.34
2023-03-31T18:11:14.576Z,51.85
2023-03-31T18:13:45.361Z,52.04
2023-03-31T18:16:14.949Z,52.11
2023-03-31T18:18:42.558Z,51.63
2023-03-31T18:21:12.060Z,52.01
2023-03-31T18:23:40.545Z,51.40
2023-03-31T18:26:09.668Z,52.65
2023-03-31T18:28:44.222Z,52.78
2023-03-31T18:31:12.369Z,52.82
2023-03-31T18:33:40.806Z,53.06
2023-03-31T18:36:19.702Z,53.15
2023-03-31T18:38:48.626Z,53.70
2023-03-31T18:41:19.286Z,54.62
2023-03-31T18:43:47.818Z,53.98
2023-03-31T18:46:14.670Z,54.16
2023-03-31T18:48:42.161Z,54.22
2023-03-31T18:51:11.178Z,54.37
2023-03-31T18:53:38.303Z,54.60
2023-03-31T18:56:06.433Z,54.94
2023-03-31T18:58:33.592Z,55.46
2023-03-31T19:01:01.404Z,55.56
2023-03-31T19:03:28.386Z,55.23
2023-03-31T19:06:10.097Z,55.30
2023-03-31T19:08:37.952Z,55.91
2023-03-31T19:11:12.268Z,56.31
2023-03-31T19:13:42.054Z,55.46
2023-03-31T19:16:09.585Z,55.76
2023-03-31T19:18:36.642Z,56.18
2023-03-31T19:21:06.385Z,57.15
2023-03-31T19:23:34.417Z,57.05
2023-03-31T19:26:03.091Z,56.79
2023-03-31T19:28:31.626Z,57.55
2023-03-31T19:30:59.386Z,57.93
2023-03-31T19:33:26.802Z,58.17
2023-03-31T19:35:54.015Z,58.24
2023-03-31T19:38:22.217Z,58.41
2023-03-31T19:40:54.940Z,57.70
2023-03-31T19:43:24.774Z,58.32
2023-03-31T19:45:54.247Z,58.21
2023-03-31T19:48:21.692Z,58.85
2023-03-31T19:50:56.081Z,58.68
2023-03-31T19:53:24.606Z,58.99
2023-03-31T19:56:03.174Z,59.63
2023-03-31T19:58:31.181Z,59.48
2023-03-31T20:00:58.166Z,59.83
2023-03-31T20:03:27.424Z,60.01
2023-03-31T20:06:04.943Z,59.99
2023-03-31T20:08:32.559Z,59.89
2023-03-31T20:11:03.037Z,59.35
2023-03-31T20:13:32.589Z,59.01
2023-03-31T20:16:01.952Z,59.15
2023-03-31T20:18:29.542Z,58.67
2023-03-31T20:21:08.266Z,58.80
2023-03-31T20:23:38.255Z,58.76
2023-03-31T20:26:06.805Z,58.43
2023-03-31T20:28:35.082Z,58.69
2023-03-31T20:31:14.536Z,58.30
2023-03-31T20:33:46.081Z,57.90
2023-03-31T20:36:19.240Z,57.16
2023-03-31T20:38:48.539Z,56.70
2023-03-31T20:41:15.884Z,56.56
2023-03-31T20:43:43.556Z,57.32
2023-03-31T20:46:11.495Z,57.17
2023-03-31T20:48:42.704Z,56.81
2023-03-31T20:53:43.794Z,57.43
2023-03-31T20:56:12.674Z,58.01
2023-03-31T20:58:42.478Z,58.08
2023-03-31T21:01:11.722Z,58.50
2023-03-31T21:03:45.323Z,58.83
2023-03-31T21:06:15.103Z,58.62
2023-03-31T21:08:43.121Z,59.31
2023-03-31T21:11:10.160Z,59.63
2023-03-31T21:13:37.986Z,60.05
2023-03-31T21:16:07.024Z,59.54
2023-03-31T21:18:37.733Z,60.18
2023-03-31T21:21:10.914Z,60.13
2023-03-31T21:23:38.625Z,59.88
2023-03-31T21:26:09.564Z,60.21
2023-03-31T21:28:38.020Z,59.90
2023-03-31T21:31:06.690Z,59.78
2023-03-31T21:33:35.066Z,59.96
2023-03-31T21:36:02.450Z,59.87
2023-03-31T21:38:30.053Z,59.22
2023-03-31T21:40:57.572Z,60.32
2023-03-31T21:43:26.146Z,59.78
2023-03-31T21:45:58.502Z,59.38
2023-03-31T21:48:28.031Z,59.22
2023-03-31T21:50:57.846Z,59.18
2023-03-31T21:53:25.053Z,58.58
2023-03-31T21:55:55.369Z,58.75
2023-03-31T21:58:30.378Z,58.67
2023-03-31T22:01:06.180Z,58.52
2023-03-31T22:03:41.124Z,58.10
2023-03-31T22:06:09.455Z,57.98
2023-03-31T22:08:39.850Z,58.18
2023-03-31T22:11:09.463Z,58.05
2023-03-31T22:13:36.982Z,57.71
2023-03-31T22:16:18.428Z,57.54
2023-03-31T22:18:45.853Z,57.70
2023-03-31T22:21:33.664Z,57.45
2023-03-31T22:24:02.254Z,56.96
2023-03-31T22:26:31.303Z,57.05
2023-03-31T22:29:00.053Z,57.09
2023-03-31T22:31:28.367Z,56.53
2023-03-31T22:33:56.364Z,57.16
2023-03-31T22:36:27.243Z,57.00
2023-03-31T22:38:55.014Z,56.59
2023-03-31T22:41:22.754Z,56.67
2023-03-31T22:43:51.538Z,56.70
2023-03-31T22:46:18.477Z,57.28
2023-03-31T22:48:49.727Z,57.23
2023-03-31T22:51:17.826Z,57.22
2023-03-31T22:54:01.181Z,56.55
2023-03-31T22:56:28.354Z,56.57
2023-03-31T22:58:57.491Z,56.69
2023-03-31T23:01:24.572Z,56.39
2023-03-31T23:03:52.407Z,56.50
2023-03-31T23:06:25.529Z,56.73
2023-03-31T23:08:56.423Z,56.59
2023-03-31T23:11:24.673Z,56.14
2023-03-31T23:13:55.277Z,56.37
2023-03-31T23:16:24.626Z,56.39
2023-03-31T23:18:57.973Z,55.58
2023-03-31T23:21:27.741Z,55.71
2023-03-31T23:24:01.412Z,55.50
2023-03-31T23:26:30.872Z,55.64
2023-03-31T23:28:59.211Z,56.08
2023-03-31T23:31:34.190Z,55.96
2023-03-31T23:34:03.817Z,56.31
2023-03-31T23:36:38.343Z,55.86
2023-03-31T23:39:10.541Z,55.77
2023-03-31T23:41:47.095Z,55.71
2023-03-31T23:44:14.510Z,56.23
2023-03-31T23:46:47.828Z,56.14
2023-03-31T23:49:22.889Z,55.89
2023-03-31T23:51:49.932Z,56.29
2023-03-31T23:54:22.075Z,56.07
2023-03-31T23:56:53.056Z,55.87
2023-03-31T23:59:20.663Z,55.83
